sensor_id;sensor_type;location;lat;lon;timestamp;P1;durP1;ratioP1;P2;durP2;ratioP2
41532;SDS011;27262;-35.248;149.138;2023-11-22T00:01:14;2.63;;;0.80;;
41532;SDS011;27262;-35.248;149.138;2023-11-22T00:03:45;0.50;;;0.30;;
41532;SDS011;27262;-35.248;149.138;2023-11-22T00:06:15;0.65;;;0.40;;
41532;SDS011;27262;-35.248;149.138;2023-11-22T00:08:49;0.88;;;0.40;;
41532;SDS011;27262;-35.248;149.138;2023-11-22T00:11:19;2.35;;;0.40;;
41532;SDS011;27262;-35.248;149.138;2023-11-22T00:13:49;4.07;;;0.50;;
41532;SDS011;27262;-35.248;149.138;2023-11-22T00:16:24;2.72;;;0.40;;
41532;SDS011;27262;-35.248;149.138;2023-11-22T00:18:54;1.05;;;0.40;;
41532;SDS011;27262;-35.248;149.138;2023-11-22T00:21:25;1.02;;;0.45;;
41532;SDS011;27262;-35.248;149.138;2023-11-22T00:23:55;5.32;;;0.60;;
41532;SDS011;27262;-35.248;149.138;2023-11-22T00:26:26;0.63;;;0.40;;
41532;SDS011;27262;-35.248;149.138;2023-11-22T00:28:56;2.70;;;0.50;;
41532;SDS011;27262;-35.248;149.138;2023-11-22T00:31:27;0.68;;;0.43;;
41532;SDS011;27262;-35.248;149.138;2023-11-22T00:33:58;1.38;;;0.52;;
41532;SDS011;27262;-35.248;149.138;2023-11-22T00:36:28;4.38;;;0.57;;
41532;SDS011;27262;-35.248;149.138;2023-11-22T00:38:59;1.58;;;0.70;;
41532;SDS011;27262;-35.248;149.138;2023-11-22T00:41:32;2.90;;;0.50;;
41532;SDS011;27262;-35.248;149.138;2023-11-22T00:44:04;1.75;;;0.70;;
41532;SDS011;27262;-35.248;149.138;2023-11-22T00:46:35;3.20;;;0.73;;
41532;SDS011;27262;-35.248;149.138;2023-11-22T00:49:08;0.93;;;0.50;;
41532;SDS011;27262;-35.248;149.138;2023-11-22T00:57:07;1.08;;;0.60;;
41532;SDS011;27262;-35.248;149.138;2023-11-22T00:59:37;1.95;;;0.75;;
41532;SDS011;27262;-35.248;149.138;2023-11-22T01:02:08;1.73;;;0.50;;
41532;SDS011;27262;-35.248;149.138;2023-11-22T01:04:38;0.98;;;0.50;;
41532;SDS011;27262;-35.248;149.138;2023-11-22T01:07:08;0.85;;;0.57;;
41532;SDS011;27262;-35.248;149.138;2023-11-22T01:09:39;1.10;;;0.45;;
41532;SDS011;27262;-35.248;149.138;2023-11-22T01:12:09;1.00;;;0.80;;
41532;SDS011;27262;-35.248;149.138;2023-11-22T01:14:40;0.65;;;0.65;;
41532;SDS011;27262;-35.248;149.138;2023-11-22T01:17:10;0.65;;;0.50;;
41532;SDS011;27262;-35.248;149.138;2023-11-22T01:19:41;1.60;;;0.77;;
41532;SDS011;27262;-35.248;149.138;2023-11-22T01:22:11;3.20;;;0.52;;
41532;SDS011;27262;-35.248;149.138;2023-11-22T01:24:41;1.17;;;0.60;;
41532;SDS011;27262;-35.248;149.138;2023-11-22T01:27:11;1.23;;;0.50;;
41532;SDS011;27262;-35.248;149.138;2023-11-22T01:29:42;6.05;;;0.90;;
41532;SDS011;27262;-35.248;149.138;2023-11-22T01:32:12;6.28;;;0.65;;
41532;SDS011;27262;-35.248;149.138;2023-11-22T01:34:45;1.13;;;0.47;;
41532;SDS011;27262;-35.248;149.138;2023-11-22T01:37:16;3.65;;;0.68;;
41532;SDS011;27262;-35.248;149.138;2023-11-22T01:39:46;2.78;;;0.90;;
41532;SDS011;27262;-35.248;149.138;2023-11-22T01:42:17;3.90;;;0.70;;
41532;SDS011;27262;-35.248;149.138;2023-11-22T01:44:57;4.38;;;0.80;;
41532;SDS011;27262;-35.248;149.138;2023-11-22T01:47:27;1.60;;;0.70;;
41532;SDS011;27262;-35.248;149.138;2023-11-22T01:49:58;2.55;;;0.55;;
41532;SDS011;27262;-35.248;149.138;2023-11-22T01:52:28;3.38;;;0.50;;
41532;SDS011;27262;-35.248;149.138;2023-11-22T01:54:59;1.15;;;0.52;;
41532;SDS011;27262;-35.248;149.138;2023-11-22T01:57:33;1.65;;;0.80;;
41532;SDS011;27262;-35.248;149.138;2023-11-22T02:00:05;1.50;;;0.80;;
41532;SDS011;27262;-35.248;149.138;2023-11-22T02:02:43;3.53;;;1.10;;
41532;SDS011;27262;-35.248;149.138;2023-11-22T02:05:13;4.07;;;1.13;;
41532;SDS011;27262;-35.248;149.138;2023-11-22T02:07:44;2.10;;;1.02;;
41532;SDS011;27262;-35.248;149.138;2023-11-22T02:10:15;4.05;;;1.13;;
41532;SDS011;27262;-35.248;149.138;2023-11-22T02:12:45;3.38;;;0.90;;
41532;SDS011;27262;-35.248;149.138;2023-11-22T02:15:15;2.33;;;0.80;;
41532;SDS011;27262;-35.248;149.138;2023-11-22T02:17:46;3.88;;;1.08;;
41532;SDS011;27262;-35.248;149.138;2023-11-22T02:20:23;2.13;;;0.80;;
41532;SDS011;27262;-35.248;149.138;2023-11-22T02:22:53;1.23;;;0.73;;
41532;SDS011;27262;-35.248;149.138;2023-11-22T02:25:25;1.20;;;0.52;;
41532;SDS011;27262;-35.248;149.138;2023-11-22T02:27:55;1.27;;;0.70;;
41532;SDS011;27262;-35.248;149.138;2023-11-22T02:30:25;2.30;;;0.70;;
41532;SDS011;27262;-35.248;149.138;2023-11-22T02:32:56;1.77;;;0.80;;
41532;SDS011;27262;-35.248;149.138;2023-11-22T02:35:26;3.35;;;1.08;;
41532;SDS011;27262;-35.248;149.138;2023-11-22T02:37:56;2.50;;;0.77;;
41532;SDS011;27262;-35.248;149.138;2023-11-22T02:40:27;1.77;;;0.60;;
41532;SDS011;27262;-35.248;149.138;2023-11-22T02:42:58;2.90;;;0.65;;
41532;SDS011;27262;-35.248;149.138;2023-11-22T02:45:33;0.85;;;0.50;;
41532;SDS011;27262;-35.248;149.138;2023-11-22T02:48:05;3.28;;;0.77;;
41532;SDS011;27262;-35.248;149.138;2023-11-22T02:50:37;2.28;;;0.80;;
41532;SDS011;27262;-35.248;149.138;2023-11-22T02:53:08;1.15;;;0.82;;
41532;SDS011;27262;-35.248;149.138;2023-11-22T02:55:39;0.70;;;0.60;;
41532;SDS011;27262;-35.248;149.138;2023-11-22T02:58:09;1.83;;;0.68;;
41532;SDS011;27262;-35.248;149.138;2023-11-22T03:00:41;1.23;;;0.65;;
41532;SDS011;27262;-35.248;149.138;2023-11-22T03:03:11;2.78;;;0.80;;
41532;SDS011;27262;-35.248;149.138;2023-11-22T03:05:42;1.00;;;0.47;;
41532;SDS011;27262;-35.248;149.138;2023-11-22T03:08:12;0.90;;;0.70;;
41532;SDS011;27262;-35.248;149.138;2023-11-22T03:10:44;1.80;;;0.50;;
41532;SDS011;27262;-35.248;149.138;2023-11-22T03:13:14;1.20;;;0.63;;
41532;SDS011;27262;-35.248;149.138;2023-11-22T03:15:45;1.02;;;0.50;;
41532;SDS011;27262;-35.248;149.138;2023-11-22T03:18:15;1.80;;;0.60;;
41532;SDS011;27262;-35.248;149.138;2023-11-22T03:20:45;1.80;;;0.90;;
41532;SDS011;27262;-35.248;149.138;2023-11-22T03:23:16;0.90;;;0.75;;
41532;SDS011;27262;-35.248;149.138;2023-11-22T03:25:46;1.42;;;0.43;;
41532;SDS011;27262;-35.248;149.138;2023-11-22T03:28:16;1.85;;;0.57;;
41532;SDS011;27262;-35.248;149.138;2023-11-22T03:30:47;3.30;;;0.65;;
41532;SDS011;27262;-35.248;149.138;2023-11-22T03:33:17;1.30;;;0.50;;
41532;SDS011;27262;-35.248;149.138;2023-11-22T03:35:48;3.33;;;0.80;;
41532;SDS011;27262;-35.248;149.138;2023-11-22T03:38:19;2.03;;;0.60;;
41532;SDS011;27262;-35.248;149.138;2023-11-22T03:40:50;1.27;;;0.70;;
41532;SDS011;27262;-35.248;149.138;2023-11-22T03:43:21;0.85;;;0.40;;
41532;SDS011;27262;-35.248;149.138;2023-11-22T03:45:52;3.60;;;0.60;;
41532;SDS011;27262;-35.248;149.138;2023-11-22T03:48:22;1.27;;;0.70;;
41532;SDS011;27262;-35.248;149.138;2023-11-22T03:50:54;1.20;;;0.60;;
41532;SDS011;27262;-35.248;149.138;2023-11-22T03:53:25;1.27;;;0.60;;
41532;SDS011;27262;-35.248;149.138;2023-11-22T03:55:56;2.42;;;0.70;;
41532;SDS011;27262;-35.248;149.138;2023-11-22T03:58:27;1.67;;;0.70;;
41532;SDS011;27262;-35.248;149.138;2023-11-22T04:00:57;2.55;;;0.60;;
41532;SDS011;27262;-35.248;149.138;2023-11-22T04:03:31;1.10;;;0.60;;
41532;SDS011;27262;-35.248;149.138;2023-11-22T04:06:02;2.00;;;0.50;;
41532;SDS011;27262;-35.248;149.138;2023-11-22T04:08:32;1.08;;;0.60;;
41532;SDS011;27262;-35.248;149.138;2023-11-22T04:11:03;2.20;;;0.60;;
41532;SDS011;27262;-35.248;149.138;2023-11-22T04:13:33;1.95;;;0.55;;
41532;SDS011;27262;-35.248;149.138;2023-11-22T04:16:04;1.27;;;0.50;;
41532;SDS011;27262;-35.248;149.138;2023-11-22T04:18:40;0.93;;;0.50;;
41532;SDS011;27262;-35.248;149.138;2023-11-22T04:21:12;1.25;;;0.47;;
41532;SDS011;27262;-35.248;149.138;2023-11-22T04:23:42;3.50;;;0.75;;
41532;SDS011;27262;-35.248;149.138;2023-11-22T04:26:13;1.52;;;0.60;;
41532;SDS011;27262;-35.248;149.138;2023-11-22T04:28:44;1.33;;;0.50;;
41532;SDS011;27262;-35.248;149.138;2023-11-22T04:31:15;1.70;;;0.60;;
41532;SDS011;27262;-35.248;149.138;2023-11-22T04:33:46;1.10;;;0.55;;
41532;SDS011;27262;-35.248;149.138;2023-11-22T04:36:16;0.95;;;0.47;;
41532;SDS011;27262;-35.248;149.138;2023-11-22T04:38:50;4.00;;;0.65;;
41532;SDS011;27262;-35.248;149.138;2023-11-22T04:41:20;0.70;;;0.50;;
41532;SDS011;27262;-35.248;149.138;2023-11-22T04:43:51;1.50;;;0.52;;
41532;SDS011;27262;-35.248;149.138;2023-11-22T04:46:22;0.80;;;0.40;;
41532;SDS011;27262;-35.248;149.138;2023-11-22T04:48:52;1.05;;;0.50;;
41532;SDS011;27262;-35.248;149.138;2023-11-22T04:51:23;1.80;;;0.60;;
41532;SDS011;27262;-35.248;149.138;2023-11-22T04:53:53;0.60;;;0.47;;
41532;SDS011;27262;-35.248;149.138;2023-11-22T04:56:23;3.95;;;0.50;;
41532;SDS011;27262;-35.248;149.138;2023-11-22T04:58:54;2.70;;;0.60;;
41532;SDS011;27262;-35.248;149.138;2023-11-22T05:01:30;1.10;;;0.45;;
41532;SDS011;27262;-35.248;149.138;2023-11-22T05:04:01;1.85;;;0.85;;
41532;SDS011;27262;-35.248;149.138;2023-11-22T05:06:32;6.47;;;0.57;;
41532;SDS011;27262;-35.248;149.138;2023-11-22T05:09:02;3.85;;;0.70;;
41532;SDS011;27262;-35.248;149.138;2023-11-22T05:11:34;3.75;;;0.60;;
41532;SDS011;27262;-35.248;149.138;2023-11-22T05:14:04;4.72;;;0.52;;
41532;SDS011;27262;-35.248;149.138;2023-11-22T05:16:35;3.22;;;0.90;;
41532;SDS011;27262;-35.248;149.138;2023-11-22T05:19:05;3.53;;;0.68;;
41532;SDS011;27262;-35.248;149.138;2023-11-22T05:21:35;2.28;;;0.77;;
41532;SDS011;27262;-35.248;149.138;2023-11-22T05:24:06;3.33;;;0.50;;
41532;SDS011;27262;-35.248;149.138;2023-11-22T05:26:37;1.92;;;0.50;;
41532;SDS011;27262;-35.248;149.138;2023-11-22T05:29:07;2.03;;;0.70;;
41532;SDS011;27262;-35.248;149.138;2023-11-22T05:31:38;1.38;;;0.50;;
41532;SDS011;27262;-35.248;149.138;2023-11-22T05:34:08;3.00;;;0.73;;
41532;SDS011;27262;-35.248;149.138;2023-11-22T05:36:39;1.38;;;0.55;;
41532;SDS011;27262;-35.248;149.138;2023-11-22T05:39:09;5.18;;;0.82;;
41532;SDS011;27262;-35.248;149.138;2023-11-22T05:41:40;3.10;;;0.60;;
41532;SDS011;27262;-35.248;149.138;2023-11-22T05:44:11;0.77;;;0.50;;
41532;SDS011;27262;-35.248;149.138;2023-11-22T05:46:41;5.25;;;0.90;;
41532;SDS011;27262;-35.248;149.138;2023-11-22T05:49:11;1.30;;;0.60;;
41532;SDS011;27262;-35.248;149.138;2023-11-22T05:51:41;5.13;;;0.75;;
41532;SDS011;27262;-35.248;149.138;2023-11-22T05:54:12;1.23;;;0.80;;
41532;SDS011;27262;-35.248;149.138;2023-11-22T05:56:44;5.95;;;1.13;;
41532;SDS011;27262;-35.248;149.138;2023-11-22T05:59:15;6.20;;;0.85;;
41532;SDS011;27262;-35.248;149.138;2023-11-22T06:01:45;1.50;;;0.70;;
41532;SDS011;27262;-35.248;149.138;2023-11-22T06:04:16;1.90;;;0.80;;
41532;SDS011;27262;-35.248;149.138;2023-11-22T06:06:46;2.58;;;0.90;;
41532;SDS011;27262;-35.248;149.138;2023-11-22T06:09:16;3.30;;;1.00;;
41532;SDS011;27262;-35.248;149.138;2023-11-22T06:11:47;6.47;;;1.40;;
41532;SDS011;27262;-35.248;149.138;2023-11-22T06:14:18;3.42;;;1.58;;
41532;SDS011;27262;-35.248;149.138;2023-11-22T06:16:48;1.52;;;1.10;;
41532;SDS011;27262;-35.248;149.138;2023-11-22T06:19:19;4.25;;;1.17;;
41532;SDS011;27262;-35.248;149.138;2023-11-22T06:21:49;3.28;;;1.23;;
41532;SDS011;27262;-35.248;149.138;2023-11-22T06:24:21;2.50;;;1.50;;
41532;SDS011;27262;-35.248;149.138;2023-11-22T06:26:51;1.58;;;1.15;;
41532;SDS011;27262;-35.248;149.138;2023-11-22T06:29:22;2.17;;;1.27;;
41532;SDS011;27262;-35.248;149.138;2023-11-22T06:31:52;1.42;;;1.08;;
41532;SDS011;27262;-35.248;149.138;2023-11-22T06:34:23;4.55;;;1.60;;
41532;SDS011;27262;-35.248;149.138;2023-11-22T06:36:53;3.90;;;1.40;;
41532;SDS011;27262;-35.248;149.138;2023-11-22T06:39:24;8.30;;;1.30;;
41532;SDS011;27262;-35.248;149.138;2023-11-22T06:41:55;2.10;;;1.60;;
41532;SDS011;27262;-35.248;149.138;2023-11-22T06:44:26;4.63;;;2.00;;
41532;SDS011;27262;-35.248;149.138;2023-11-22T06:46:56;5.35;;;2.40;;
41532;SDS011;27262;-35.248;149.138;2023-11-22T06:49:45;4.63;;;2.70;;
41532;SDS011;27262;-35.248;149.138;2023-11-22T06:52:16;6.05;;;2.53;;
41532;SDS011;27262;-35.248;149.138;2023-11-22T06:54:47;5.90;;;2.97;;
41532;SDS011;27262;-35.248;149.138;2023-11-22T06:57:18;5.65;;;2.65;;
41532;SDS011;27262;-35.248;149.138;2023-11-22T06:59:56;6.88;;;2.78;;
41532;SDS011;27262;-35.248;149.138;2023-11-22T07:02:27;3.33;;;2.38;;
41532;SDS011;27262;-35.248;149.138;2023-11-22T07:04:57;3.85;;;2.47;;
41532;SDS011;27262;-35.248;149.138;2023-11-22T07:07:28;4.13;;;3.20;;
41532;SDS011;27262;-35.248;149.138;2023-11-22T07:09:59;3.35;;;2.40;;
41532;SDS011;27262;-35.248;149.138;2023-11-22T07:12:29;4.80;;;2.67;;
41532;SDS011;27262;-35.248;149.138;2023-11-22T07:15:00;4.75;;;2.90;;
41532;SDS011;27262;-35.248;149.138;2023-11-22T07:17:31;6.60;;;3.33;;
41532;SDS011;27262;-35.248;149.138;2023-11-22T07:20:05;5.07;;;3.42;;
41532;SDS011;27262;-35.248;149.138;2023-11-22T07:22:39;3.63;;;2.63;;
41532;SDS011;27262;-35.248;149.138;2023-11-22T07:25:11;6.20;;;2.85;;
41532;SDS011;27262;-35.248;149.138;2023-11-22T07:27:47;15.20;;;2.30;;
41532;SDS011;27262;-35.248;149.138;2023-11-22T07:30:17;5.22;;;2.15;;
41532;SDS011;27262;-35.248;149.138;2023-11-22T07:32:51;7.45;;;2.35;;
41532;SDS011;27262;-35.248;149.138;2023-11-22T07:35:22;5.93;;;2.38;;
41532;SDS011;27262;-35.248;149.138;2023-11-22T07:37:54;3.78;;;2.40;;
41532;SDS011;27262;-35.248;149.138;2023-11-22T07:40:24;3.58;;;2.10;;
41532;SDS011;27262;-35.248;149.138;2023-11-22T07:42:56;4.07;;;1.88;;
41532;SDS011;27262;-35.248;149.138;2023-11-22T07:45:26;2.65;;;1.85;;
41532;SDS011;27262;-35.248;149.138;2023-11-22T07:47:57;5.57;;;2.00;;
41532;SDS011;27262;-35.248;149.138;2023-11-22T07:50:28;4.28;;;1.88;;
41532;SDS011;27262;-35.248;149.138;2023-11-22T07:52:58;3.78;;;1.90;;
41532;SDS011;27262;-35.248;149.138;2023-11-22T07:55:31;4.93;;;2.60;;
41532;SDS011;27262;-35.248;149.138;2023-11-22T07:58:04;4.72;;;1.90;;
41532;SDS011;27262;-35.248;149.138;2023-11-22T08:00:37;3.63;;;1.75;;
41532;SDS011;27262;-35.248;149.138;2023-11-22T08:03:10;3.67;;;2.22;;
41532;SDS011;27262;-35.248;149.138;2023-11-22T08:05:44;4.68;;;1.85;;
41532;SDS011;27262;-35.248;149.138;2023-11-22T08:08:22;4.07;;;2.22;;
41532;SDS011;27262;-35.248;149.138;2023-11-22T08:10:54;2.53;;;1.75;;
41532;SDS011;27262;-35.248;149.138;2023-11-22T08:13:25;2.72;;;2.42;;
41532;SDS011;27262;-35.248;149.138;2023-11-22T08:15:55;4.40;;;2.15;;
41532;SDS011;27262;-35.248;149.138;2023-11-22T08:18:26;4.10;;;1.70;;
41532;SDS011;27262;-35.248;149.138;2023-11-22T08:20:56;4.03;;;2.38;;
41532;SDS011;27262;-35.248;149.138;2023-11-22T08:23:27;2.92;;;1.70;;
41532;SDS011;27262;-35.248;149.138;2023-11-22T08:25:59;2.72;;;1.98;;
41532;SDS011;27262;-35.248;149.138;2023-11-22T08:28:30;3.00;;;1.80;;
41532;SDS011;27262;-35.248;149.138;2023-11-22T08:31:01;1.95;;;1.77;;
41532;SDS011;27262;-35.248;149.138;2023-11-22T08:33:32;4.22;;;2.08;;
41532;SDS011;27262;-35.248;149.138;2023-11-22T08:36:03;2.97;;;1.90;;
41532;SDS011;27262;-35.248;149.138;2023-11-22T08:38:35;2.00;;;1.75;;
41532;SDS011;27262;-35.248;149.138;2023-11-22T08:41:10;2.50;;;1.67;;
41532;SDS011;27262;-35.248;149.138;2023-11-22T08:43:42;3.03;;;1.80;;
41532;SDS011;27262;-35.248;149.138;2023-11-22T08:46:12;2.90;;;2.00;;
41532;SDS011;27262;-35.248;149.138;2023-11-22T08:48:42;2.17;;;1.83;;
41532;SDS011;27262;-35.248;149.138;2023-11-22T08:51:13;3.97;;;1.88;;
41532;SDS011;27262;-35.248;149.138;2023-11-22T08:53:43;1.95;;;1.75;;
41532;SDS011;27262;-35.248;149.138;2023-11-22T08:56:14;1.75;;;1.65;;
41532;SDS011;27262;-35.248;149.138;2023-11-22T08:58:45;2.97;;;1.65;;
41532;SDS011;27262;-35.248;149.138;2023-11-22T09:01:15;3.08;;;1.95;;
41532;SDS011;27262;-35.248;149.138;2023-11-22T09:03:47;3.38;;;2.42;;
41532;SDS011;27262;-35.248;149.138;2023-11-22T09:06:18;2.67;;;2.05;;
41532;SDS011;27262;-35.248;149.138;2023-11-22T09:08:49;3.60;;;1.73;;
41532;SDS011;27262;-35.248;149.138;2023-11-22T09:11:20;2.38;;;1.73;;
41532;SDS011;27262;-35.248;149.138;2023-11-22T09:13:51;2.72;;;2.03;;
41532;SDS011;27262;-35.248;149.138;2023-11-22T09:16:26;2.22;;;1.75;;
41532;SDS011;27262;-35.248;149.138;2023-11-22T09:18:57;3.35;;;2.00;;
41532;SDS011;27262;-35.248;149.138;2023-11-22T09:21:29;2.38;;;2.17;;
41532;SDS011;27262;-35.248;149.138;2023-11-22T09:23:59;2.28;;;2.00;;
41532;SDS011;27262;-35.248;149.138;2023-11-22T09:26:30;2.67;;;1.95;;
41532;SDS011;27262;-35.248;149.138;2023-11-22T09:29:01;2.13;;;1.60;;
41532;SDS011;27262;-35.248;149.138;2023-11-22T09:31:33;2.00;;;1.50;;
41532;SDS011;27262;-35.248;149.138;2023-11-22T09:34:04;2.85;;;2.00;;
41532;SDS011;27262;-35.248;149.138;2023-11-22T09:36:35;2.78;;;2.00;;
41532;SDS011;27262;-35.248;149.138;2023-11-22T09:39:05;2.30;;;2.10;;
41532;SDS011;27262;-35.248;149.138;2023-11-22T09:41:39;1.55;;;1.45;;
41532;SDS011;27262;-35.248;149.138;2023-11-22T09:44:09;3.55;;;1.90;;
41532;SDS011;27262;-35.248;149.138;2023-11-22T09:46:41;2.65;;;2.08;;
41532;SDS011;27262;-35.248;149.138;2023-11-22T09:49:13;3.65;;;1.63;;
41532;SDS011;27262;-35.248;149.138;2023-11-22T09:51:51;3.00;;;1.90;;
41532;SDS011;27262;-35.248;149.138;2023-11-22T09:54:24;3.63;;;1.80;;
41532;SDS011;27262;-35.248;149.138;2023-11-22T09:56:59;2.65;;;1.85;;
41532;SDS011;27262;-35.248;149.138;2023-11-22T09:59:31;2.35;;;1.90;;
41532;SDS011;27262;-35.248;149.138;2023-11-22T10:02:02;2.85;;;1.95;;
41532;SDS011;27262;-35.248;149.138;2023-11-22T10:04:35;3.15;;;1.85;;
41532;SDS011;27262;-35.248;149.138;2023-11-22T10:07:06;2.20;;;2.00;;
41532;SDS011;27262;-35.248;149.138;2023-11-22T10:09:38;2.13;;;1.92;;
41532;SDS011;27262;-35.248;149.138;2023-11-22T10:12:11;2.35;;;1.85;;
41532;SDS011;27262;-35.248;149.138;2023-11-22T10:14:43;2.33;;;2.13;;
41532;SDS011;27262;-35.248;149.138;2023-11-22T10:17:14;2.63;;;2.10;;
41532;SDS011;27262;-35.248;149.138;2023-11-22T10:19:45;2.58;;;2.10;;
41532;SDS011;27262;-35.248;149.138;2023-11-22T10:22:15;2.40;;;1.95;;
41532;SDS011;27262;-35.248;149.138;2023-11-22T10:24:46;1.85;;;1.75;;
41532;SDS011;27262;-35.248;149.138;2023-11-22T10:27:17;4.40;;;2.00;;
41532;SDS011;27262;-35.248;149.138;2023-11-22T10:29:48;7.40;;;2.50;;
41532;SDS011;27262;-35.248;149.138;2023-11-22T10:32:19;3.88;;;2.40;;
41532;SDS011;27262;-35.248;149.138;2023-11-22T10:34:49;2.88;;;1.80;;
41532;SDS011;27262;-35.248;149.138;2023-11-22T10:37:20;2.72;;;2.15;;
41532;SDS011;27262;-35.248;149.138;2023-11-22T10:39:53;3.03;;;2.40;;
41532;SDS011;27262;-35.248;149.138;2023-11-22T10:42:24;3.85;;;2.05;;
41532;SDS011;27262;-35.248;149.138;2023-11-22T10:44:56;4.07;;;2.28;;
41532;SDS011;27262;-35.248;149.138;2023-11-22T10:47:30;4.38;;;2.40;;
41532;SDS011;27262;-35.248;149.138;2023-11-22T10:50:06;3.28;;;2.08;;
41532;SDS011;27262;-35.248;149.138;2023-11-22T10:52:40;2.53;;;2.33;;
41532;SDS011;27262;-35.248;149.138;2023-11-22T10:55:12;4.22;;;2.30;;
41532;SDS011;27262;-35.248;149.138;2023-11-22T10:57:45;2.85;;;2.20;;
41532;SDS011;27262;-35.248;149.138;2023-11-22T11:00:19;2.38;;;2.10;;
41532;SDS011;27262;-35.248;149.138;2023-11-22T11:03:02;3.90;;;2.35;;
41532;SDS011;27262;-35.248;149.138;2023-11-22T11:05:58;2.65;;;2.03;;
41532;SDS011;27262;-35.248;149.138;2023-11-22T11:08:37;2.35;;;2.15;;
41532;SDS011;27262;-35.248;149.138;2023-11-22T11:11:08;2.58;;;2.38;;
41532;SDS011;27262;-35.248;149.138;2023-11-22T11:13:38;2.95;;;2.13;;
41532;SDS011;27262;-35.248;149.138;2023-11-22T11:16:09;2.38;;;2.17;;
41532;SDS011;27262;-35.248;149.138;2023-11-22T11:18:40;3.60;;;2.08;;
41532;SDS011;27262;-35.248;149.138;2023-11-22T11:21:11;3.55;;;1.98;;
41532;SDS011;27262;-35.248;149.138;2023-11-22T11:23:45;3.50;;;2.55;;
41532;SDS011;27262;-35.248;149.138;2023-11-22T11:26:16;2.47;;;2.20;;
41532;SDS011;27262;-35.248;149.138;2023-11-22T11:28:50;2.70;;;2.35;;
41532;SDS011;27262;-35.248;149.138;2023-11-22T11:31:21;3.80;;;2.22;;
41532;SDS011;27262;-35.248;149.138;2023-11-22T11:33:53;2.20;;;2.00;;
41532;SDS011;27262;-35.248;149.138;2023-11-22T11:39:02;2.92;;;2.67;;
41532;SDS011;27262;-35.248;149.138;2023-11-22T11:41:46;2.63;;;2.03;;
41532;SDS011;27262;-35.248;149.138;2023-11-22T11:44:17;3.53;;;2.03;;
41532;SDS011;27262;-35.248;149.138;2023-11-22T11:46:48;2.78;;;2.10;;
41532;SDS011;27262;-35.248;149.138;2023-11-22T11:49:21;4.53;;;2.25;;
41532;SDS011;27262;-35.248;149.138;2023-11-22T11:51:52;3.28;;;2.05;;
41532;SDS011;27262;-35.248;149.138;2023-11-22T11:54:23;2.38;;;2.17;;
41532;SDS011;27262;-35.248;149.138;2023-11-22T11:56:57;2.47;;;2.28;;
41532;SDS011;27262;-35.248;149.138;2023-11-22T11:59:32;2.80;;;2.50;;
41532;SDS011;27262;-35.248;149.138;2023-11-22T12:02:06;3.33;;;2.60;;
41532;SDS011;27262;-35.248;149.138;2023-11-22T12:04:37;2.47;;;2.25;;
41532;SDS011;27262;-35.248;149.138;2023-11-22T12:07:09;2.72;;;2.35;;
41532;SDS011;27262;-35.248;149.138;2023-11-22T12:09:41;3.75;;;2.25;;
41532;SDS011;27262;-35.248;149.138;2023-11-22T12:12:12;3.72;;;2.25;;
41532;SDS011;27262;-35.248;149.138;2023-11-22T12:14:43;2.50;;;2.20;;
41532;SDS011;27262;-35.248;149.138;2023-11-22T12:17:14;2.58;;;2.35;;
41532;SDS011;27262;-35.248;149.138;2023-11-22T12:19:46;2.38;;;2.17;;
41532;SDS011;27262;-35.248;149.138;2023-11-22T12:22:20;3.67;;;2.42;;
41532;SDS011;27262;-35.248;149.138;2023-11-22T12:24:51;2.40;;;2.20;;
41532;SDS011;27262;-35.248;149.138;2023-11-22T12:27:22;3.78;;;2.58;;
41532;SDS011;27262;-35.248;149.138;2023-11-22T12:29:53;4.15;;;2.25;;
41532;SDS011;27262;-35.248;149.138;2023-11-22T12:32:29;2.58;;;2.35;;
41532;SDS011;27262;-35.248;149.138;2023-11-22T12:35:00;2.58;;;2.33;;
41532;SDS011;27262;-35.248;149.138;2023-11-22T12:37:32;2.92;;;2.67;;
41532;SDS011;27262;-35.248;149.138;2023-11-22T12:40:09;2.38;;;2.17;;
41532;SDS011;27262;-35.248;149.138;2023-11-22T12:42:49;2.63;;;2.42;;
41532;SDS011;27262;-35.248;149.138;2023-11-22T12:45:21;3.75;;;2.58;;
41532;SDS011;27262;-35.248;149.138;2023-11-22T12:47:53;3.25;;;2.95;;
41532;SDS011;27262;-35.248;149.138;2023-11-22T12:50:34;2.40;;;2.20;;
41532;SDS011;27262;-35.248;149.138;2023-11-22T12:53:12;2.97;;;2.78;;
41532;SDS011;27262;-35.248;149.138;2023-11-22T12:55:44;2.65;;;2.45;;
41532;SDS011;27262;-35.248;149.138;2023-11-22T12:58:17;2.67;;;2.47;;
41532;SDS011;27262;-35.248;149.138;2023-11-22T13:00:49;2.70;;;2.47;;
41532;SDS011;27262;-35.248;149.138;2023-11-22T13:03:34;2.50;;;2.30;;
41532;SDS011;27262;-35.248;149.138;2023-11-22T13:06:06;2.92;;;2.63;;
41532;SDS011;27262;-35.248;149.138;2023-11-22T13:08:37;2.95;;;2.65;;
41532;SDS011;27262;-35.248;149.138;2023-11-22T13:11:08;3.28;;;2.63;;
41532;SDS011;27262;-35.248;149.138;2023-11-22T13:13:39;2.50;;;2.30;;
41532;SDS011;27262;-35.248;149.138;2023-11-22T13:16:20;2.92;;;2.65;;
41532;SDS011;27262;-35.248;149.138;2023-11-22T13:18:50;2.92;;;2.55;;
41532;SDS011;27262;-35.248;149.138;2023-11-22T13:21:21;3.88;;;2.63;;
41532;SDS011;27262;-35.248;149.138;2023-11-22T13:23:52;2.75;;;2.55;;
41532;SDS011;27262;-35.248;149.138;2023-11-22T13:26:24;2.72;;;2.53;;
41532;SDS011;27262;-35.248;149.138;2023-11-22T13:28:55;3.33;;;2.40;;
41532;SDS011;27262;-35.248;149.138;2023-11-22T13:31:27;3.88;;;2.70;;
41532;SDS011;27262;-35.248;149.138;2023-11-22T13:33:58;2.47;;;2.28;;
41532;SDS011;27262;-35.248;149.138;2023-11-22T13:36:28;3.03;;;2.72;;
41532;SDS011;27262;-35.248;149.138;2023-11-22T13:39:00;2.50;;;2.30;;
41532;SDS011;27262;-35.248;149.138;2023-11-22T13:41:32;2.83;;;2.63;;
41532;SDS011;27262;-35.248;149.138;2023-11-22T13:44:03;3.55;;;2.78;;
41532;SDS011;27262;-35.248;149.138;2023-11-22T13:46:34;2.53;;;2.33;;
41532;SDS011;27262;-35.248;149.138;2023-11-22T13:49:05;2.72;;;2.53;;
41532;SDS011;27262;-35.248;149.138;2023-11-22T13:51:35;3.20;;;2.90;;
41532;SDS011;27262;-35.248;149.138;2023-11-22T13:54:06;2.90;;;2.50;;
41532;SDS011;27262;-35.248;149.138;2023-11-22T13:56:37;2.58;;;2.38;;
41532;SDS011;27262;-35.248;149.138;2023-11-22T13:59:07;2.25;;;2.08;;
41532;SDS011;27262;-35.248;149.138;2023-11-22T14:01:40;2.50;;;2.30;;
41532;SDS011;27262;-35.248;149.138;2023-11-22T14:04:12;2.40;;;2.20;;
41532;SDS011;27262;-35.248;149.138;2023-11-22T14:06:43;2.25;;;2.13;;
41532;SDS011;27262;-35.248;149.138;2023-11-22T14:09:27;2.65;;;2.20;;
41532;SDS011;27262;-35.248;149.138;2023-11-22T14:11:58;2.63;;;2.42;;
41532;SDS011;27262;-35.248;149.138;2023-11-22T14:14:29;2.65;;;2.42;;
41532;SDS011;27262;-35.248;149.138;2023-11-22T14:16:59;2.90;;;2.60;;
41532;SDS011;27262;-35.248;149.138;2023-11-22T14:19:30;3.70;;;2.75;;
41532;SDS011;27262;-35.248;149.138;2023-11-22T14:22:00;3.17;;;2.58;;
41532;SDS011;27262;-35.248;149.138;2023-11-22T14:24:42;3.25;;;2.60;;
41532;SDS011;27262;-35.248;149.138;2023-11-22T14:27:16;2.70;;;2.50;;
41532;SDS011;27262;-35.248;149.138;2023-11-22T14:29:48;3.28;;;2.90;;
41532;SDS011;27262;-35.248;149.138;2023-11-22T14:32:19;2.90;;;2.33;;
41532;SDS011;27262;-35.248;149.138;2023-11-22T14:34:50;2.70;;;2.50;;
41532;SDS011;27262;-35.248;149.138;2023-11-22T14:37:22;2.50;;;2.30;;
41532;SDS011;27262;-35.248;149.138;2023-11-22T14:39:53;3.10;;;2.42;;
41532;SDS011;27262;-35.248;149.138;2023-11-22T14:42:24;2.55;;;2.35;;